createdAt,value
2018-07-23T00:01:17.359Z,12.67
2018-07-23T00:03:45.960Z,13.63
2018-07-23T00:06:14.579Z,13.60
2018-07-23T00:08:43.253Z,13.53
2018-07-23T00:11:11.818Z,13.60
2018-07-23T00:13:40.420Z,13.83
2018-07-23T00:16:08.977Z,12.77
2018-07-23T00:18:37.463Z,14.17
2018-07-23T00:21:05.900Z,14.53
2018-07-23T00:23:34.415Z,14.80
2018-07-23T00:26:02.873Z,14.73
2018-07-23T00:28:31.333Z,14.80
2018-07-23T00:30:59.765Z,16.27
2018-07-23T00:33:28.302Z,14.30
2018-07-23T00:35:56.404Z,13.03
2018-07-23T00:38:24.870Z,13.03
2018-07-23T00:40:53.328Z,12.40
2018-07-23T00:43:21.816Z,13.73
2018-07-23T00:45:50.300Z,13.63
2018-07-23T00:48:18.854Z,14.30
2018-07-23T00:50:47.384Z,14.57
2018-07-23T00:53:15.808Z,14.93
2018-07-23T00:55:44.245Z,15.13
2018-07-23T00:58:12.736Z,14.60
2018-07-23T01:00:41.301Z,14.80
2018-07-23T01:03:09.770Z,13.97
2018-07-23T01:05:39.280Z,15.17
2018-07-23T01:08:08.460Z,14.77
2018-07-23T01:10:36.624Z,13.57
2018-07-23T01:13:04.796Z,13.90
2018-07-23T01:15:33.301Z,14.07
2018-07-23T01:18:01.775Z,14.20
2018-07-23T01:20:30.219Z,14.90
2018-07-23T01:22:58.789Z,14.67
2018-07-23T01:25:27.280Z,15.13
2018-07-23T01:27:55.717Z,14.80
2018-07-23T01:30:24.229Z,14.80
2018-07-23T01:32:52.687Z,14.47
2018-07-23T01:35:21.170Z,14.70
2018-07-23T01:37:49.629Z,15.63
2018-07-23T01:40:18.107Z,15.90
2018-07-23T01:42:46.521Z,16.00
2018-07-23T01:45:15.017Z,15.97
2018-07-23T01:47:43.496Z,14.53
2018-07-23T01:50:11.999Z,14.97
2018-07-23T01:52:40.485Z,16.50
2018-07-23T01:55:08.677Z,15.33
2018-07-23T01:57:37.429Z,15.80
2018-07-23T02:00:06.184Z,14.57
2018-07-23T02:02:34.699Z,16.07
2018-07-23T02:05:03.231Z,15.37
2018-07-23T02:07:31.830Z,16.60
2018-07-23T02:10:00.333Z,16.90
2018-07-23T02:12:28.926Z,16.10
2018-07-23T02:14:57.436Z,15.73
2018-07-23T02:17:25.978Z,16.43
2018-07-23T02:19:54.580Z,16.97
2018-07-23T02:22:23.138Z,17.63
2018-07-23T02:24:51.710Z,18.67
2018-07-23T02:27:20.612Z,18.63
2018-07-23T02:29:49.088Z,18.30
2018-07-23T02:32:17.559Z,17.73
2018-07-23T02:34:46.111Z,15.80
2018-07-23T02:37:14.555Z,15.37
2018-07-23T02:39:43.002Z,15.33
2018-07-23T02:42:11.423Z,15.17
2018-07-23T02:44:39.894Z,15.47
2018-07-23T02:47:08.812Z,14.77
2018-07-23T02:49:37.262Z,15.60
2018-07-23T02:52:05.716Z,15.03
2018-07-23T02:54:34.170Z,15.17
2018-07-23T02:57:02.642Z,15.20
2018-07-23T02:59:31.247Z,14.37
2018-07-23T03:01:59.698Z,15.33
2018-07-23T03:04:28.150Z,16.07
2018-07-23T03:06:56.296Z,15.47
2018-07-23T03:09:24.870Z,15.20
2018-07-23T03:11:53.315Z,15.90
2018-07-23T03:14:21.803Z,15.73
2018-07-23T03:16:50.279Z,15.60
2018-07-23T03:19:18.712Z,15.57
2018-07-23T03:21:47.239Z,15.70
2018-07-23T03:24:15.671Z,16.53
2018-07-23T03:26:44.076Z,16.63
2018-07-23T03:29:12.545Z,15.40
2018-07-23T03:31:40.721Z,16.37
2018-07-23T03:34:08.849Z,17.00
2018-07-23T03:36:37.303Z,17.77
2018-07-23T03:39:07.909Z,18.63
2018-07-23T03:41:36.377Z,18.83
2018-07-23T03:44:04.503Z,19.10
2018-07-23T03:46:33.626Z,18.27
2018-07-23T03:49:02.087Z,19.53
2018-07-23T03:51:30.652Z,20.43
2018-07-23T03:53:59.237Z,19.77
2018-07-23T03:56:27.893Z,18.80
2018-07-23T03:58:56.563Z,19.00
2018-07-23T04:01:25.045Z,20.60
2018-07-23T04:03:53.638Z,19.97
2018-07-23T04:06:22.113Z,17.47
2018-07-23T04:08:50.558Z,17.27
2018-07-23T04:11:19.129Z,16.50
2018-07-23T04:13:47.581Z,16.83
2018-07-23T04:16:16.093Z,18.27
2018-07-23T04:18:44.585Z,16.30
2018-07-23T04:21:13.129Z,18.33
2018-07-23T04:23:41.773Z,19.43
2018-07-23T04:26:10.403Z,20.07
2018-07-23T04:28:38.961Z,17.73
2018-07-23T04:31:07.757Z,19.37
2018-07-23T04:33:36.758Z,20.20
2018-07-23T04:36:05.343Z,19.93
2018-07-23T04:38:34.323Z,19.37
2018-07-23T04:41:02.878Z,18.83
2018-07-23T04:43:31.440Z,19.60
2018-07-23T04:46:03.842Z,18.07
2018-07-23T04:48:39.851Z,17.20
2018-07-23T04:51:13.528Z,16.53
2018-07-23T04:53:42.400Z,17.90
2018-07-23T04:56:11.564Z,15.70
2018-07-23T04:58:40.275Z,18.10
2018-07-23T05:01:09.073Z,16.63
2018-07-23T05:03:37.742Z,17.23
2018-07-23T05:06:06.524Z,15.83
2018-07-23T05:08:35.342Z,16.43
2018-07-23T05:11:04.250Z,15.27
2018-07-23T05:13:33.044Z,16.20
2018-07-23T05:16:01.944Z,16.47
2018-07-23T05:18:30.884Z,14.37
2018-07-23T05:20:59.694Z,16.07
2018-07-23T05:23:28.572Z,15.87
2018-07-23T05:25:57.296Z,14.93
2018-07-23T05:28:26.130Z,15.43
2018-07-23T06:43:43.337Z,13.32
2018-07-23T06:46:11.822Z,12.58
2018-07-23T06:48:39.922Z,13.22
2018-07-23T06:51:08.576Z,12.60
2018-07-23T06:53:36.702Z,11.75
2018-07-23T06:56:05.218Z,12.13
2018-07-23T06:58:33.467Z,11.88
2018-07-23T07:01:01.884Z,12.30
2018-07-23T07:03:30.390Z,10.88
2018-07-23T07:05:58.825Z,11.33
2018-07-23T07:08:27.306Z,11.38
2018-07-23T07:10:55.802Z,10.68
2018-07-23T07:13:24.343Z,10.23
2018-07-23T07:15:52.757Z,10.48
2018-07-23T07:18:21.270Z,10.30
2018-07-23T07:20:49.688Z,9.63
2018-07-23T07:23:18.345Z,8.98
2018-07-23T07:25:46.880Z,8.78
2018-07-23T07:28:15.041Z,10.15
2018-07-23T07:30:43.439Z,8.45
2018-07-23T07:33:11.556Z,8.05
2018-07-23T07:35:39.958Z,8.78
2018-07-23T07:38:08.575Z,8.50
2018-07-23T07:40:36.897Z,7.30
2018-07-23T07:43:05.467Z,7.95
2018-07-23T07:45:33.870Z,7.90
2018-07-23T07:48:02.346Z,7.03
2018-07-23T07:50:31.707Z,8.03
2018-07-23T07:53:00.217Z,7.70
2018-07-23T07:55:28.719Z,7.97
2018-07-23T07:57:57.181Z,8.03
2018-07-23T08:00:25.700Z,8.20
2018-07-23T08:02:54.133Z,7.10
2018-07-23T08:05:22.704Z,8.03
2018-07-23T08:07:51.203Z,8.03
2018-07-23T08:10:19.764Z,7.72
2018-07-23T08:12:48.322Z,7.47
2018-07-23T08:15:17.774Z,7.85
2018-07-23T08:17:46.425Z,8.65
2018-07-23T08:20:15.035Z,8.43
2018-07-23T08:22:43.539Z,8.63
2018-07-23T08:25:12.082Z,8.53
2018-07-23T08:27:40.647Z,8.60
2018-07-23T08:30:09.221Z,7.60
2018-07-23T08:32:37.745Z,7.12
2018-07-23T08:35:06.383Z,8.90
2018-07-23T08:37:34.887Z,8.60
2018-07-23T08:40:03.411Z,9.08
2018-07-23T08:42:31.945Z,8.58
2018-07-23T08:45:00.454Z,8.30
2018-07-23T08:47:28.945Z,8.83
2018-07-23T08:49:57.665Z,9.73
2018-07-23T08:52:25.876Z,9.73
2018-07-23T08:54:54.418Z,10.48
2018-07-23T08:57:22.955Z,9.80
2018-07-23T08:59:51.404Z,8.60
2018-07-23T09:02:19.976Z,9.55
2018-07-23T09:04:48.544Z,10.80
2018-07-23T09:07:16.763Z,9.05
2018-07-23T09:09:45.329Z,10.18
2018-07-23T09:12:13.886Z,8.15
2018-07-23T09:14:42.094Z,9.48
2018-07-23T09:17:10.739Z,10.45
2018-07-23T09:19:39.155Z,8.63
2018-07-23T09:22:07.679Z,8.88
2018-07-23T09:24:36.196Z,10.13
2018-07-23T09:27:04.807Z,8.15
2018-07-23T09:29:33.384Z,8.88
2018-07-23T09:32:01.918Z,8.95
2018-07-23T09:34:34.750Z,9.78
2018-07-23T09:37:03.640Z,10.08
2018-07-23T09:39:32.269Z,9.00
2018-07-23T09:42:00.873Z,9.65
2018-07-23T09:44:30.516Z,9.23
2018-07-23T09:46:59.516Z,9.18
2018-07-23T09:49:28.143Z,11.60
2018-07-23T09:51:56.748Z,8.78
2018-07-23T09:54:24.928Z,9.10
2018-07-23T09:56:53.099Z,9.28
2018-07-23T09:59:21.565Z,7.87
2018-07-23T10:01:50.092Z,9.18
2018-07-23T10:04:18.575Z,11.50
2018-07-23T10:06:47.101Z,9.18
2018-07-23T10:09:15.620Z,9.78
2018-07-23T10:11:44.153Z,11.15
2018-07-23T10:14:12.665Z,9.70
2018-07-23T10:16:41.151Z,10.18
2018-07-23T10:19:09.695Z,10.93
2018-07-23T10:21:38.255Z,8.90
2018-07-23T10:24:06.887Z,9.98
2018-07-23T10:26:35.493Z,8.50
2018-07-23T10:29:04.201Z,9.90
2018-07-23T10:31:32.831Z,10.65
2018-07-23T10:34:01.630Z,9.28
2018-07-23T10:36:30.134Z,9.03
2018-07-23T10:38:58.836Z,8.13
2018-07-23T10:41:27.674Z,8.35
2018-07-23T10:43:56.342Z,8.30
2018-07-23T10:46:25.182Z,8.73
2018-07-23T10:48:53.893Z,7.62
2018-07-23T10:51:22.477Z,7.95
2018-07-23T10:53:51.120Z,8.45
2018-07-23T10:56:19.753Z,8.70
2018-07-23T10:58:48.270Z,8.90
2018-07-23T12:29:56.232Z,8.25
2018-07-23T12:35:33.909Z,7.20
2018-07-23T12:38:32.449Z,7.60
2018-07-23T12:47:17.046Z,8.33
2018-07-23T12:49:46.690Z,8.38
2018-07-23T12:52:24.627Z,8.93
2018-07-23T12:57:33.089Z,8.28
2018-07-23T13:00:03.867Z,7.03
2018-07-23T13:05:48.817Z,7.65
2018-07-23T13:24:37.618Z,7.50
2018-07-23T13:37:05.190Z,9.10
2018-07-23T13:51:11.241Z,7.67
2018-07-23T14:03:45.060Z,7.00
2018-07-23T14:22:09.933Z,4.95
2018-07-23T14:24:58.105Z,4.85
2018-07-23T14:33:15.753Z,4.60
2018-07-23T14:49:51.440Z,5.10
2018-07-23T14:53:45.475Z,5.70
2018-07-23T15:04:34.316Z,5.33
2018-07-23T15:33:11.589Z,5.85
2018-07-23T15:35:49.401Z,5.22
2018-07-23T16:46:31.743Z,4.65
2018-07-23T16:56:51.902Z,4.17
2018-07-23T16:59:21.048Z,4.92
2018-07-23T17:01:49.596Z,4.92
2018-07-23T17:04:18.125Z,4.55
2018-07-23T17:06:46.627Z,4.03
2018-07-23T17:09:15.219Z,4.17
2018-07-23T17:11:43.900Z,4.47
2018-07-23T17:14:12.460Z,4.20
2018-07-23T17:16:42.190Z,4.55
2018-07-23T17:19:10.770Z,4.30
2018-07-23T17:21:41.729Z,4.45
2018-07-23T17:24:11.606Z,5.10
2018-07-23T17:26:40.133Z,3.85
2018-07-23T17:29:09.948Z,4.03
2018-07-23T17:31:38.522Z,4.35
2018-07-23T17:34:06.739Z,3.75
2018-07-23T17:36:35.207Z,4.67
2018-07-23T17:39:04.013Z,4.83
2018-07-23T17:41:32.541Z,4.00
2018-07-23T17:44:01.108Z,4.20
2018-07-23T17:46:29.621Z,4.42
2018-07-23T17:48:57.718Z,4.50
2018-07-23T17:51:26.268Z,4.60
2018-07-23T17:53:54.394Z,4.42
2018-07-23T17:56:23.012Z,4.90
2018-07-23T17:58:51.474Z,6.85
2018-07-23T18:01:20.107Z,5.40
2018-07-23T18:03:48.609Z,7.05
2018-07-23T18:06:17.257Z,4.58
2018-07-23T18:08:45.844Z,4.75
2018-07-23T18:11:14.414Z,4.10
2018-07-23T18:13:43.021Z,3.95
2018-07-23T18:16:11.954Z,5.83
2018-07-23T18:18:40.508Z,4.83
2018-07-23T18:21:09.352Z,5.37
2018-07-23T18:23:37.955Z,5.25
2018-07-23T18:26:06.559Z,5.08
2018-07-23T18:28:35.131Z,6.15
2018-07-23T18:31:03.934Z,6.67
2018-07-23T18:33:38.405Z,5.55
2018-07-23T18:39:05.291Z,4.72
2018-07-23T18:41:37.225Z,6.12
2018-07-23T18:44:06.992Z,4.00
2018-07-23T18:46:36.765Z,4.37
2018-07-23T18:49:22.629Z,5.15
2018-07-23T18:51:52.221Z,5.08
2018-07-23T18:54:21.967Z,5.37
2018-07-23T18:56:52.551Z,4.40
2018-07-23T18:59:21.128Z,4.00
2018-07-23T19:01:50.572Z,4.70
2018-07-23T19:04:19.098Z,5.55
2018-07-23T19:06:48.014Z,5.22
2018-07-23T19:09:18.513Z,6.40
2018-07-23T19:11:48.188Z,5.58
2018-07-23T19:14:16.992Z,6.05
2018-07-23T19:16:45.993Z,4.67
2018-07-23T19:19:14.467Z,5.00
2018-07-23T19:21:42.993Z,5.30
2018-07-23T19:24:11.485Z,6.83
2018-07-23T19:26:40.103Z,6.95
2018-07-23T19:29:08.605Z,7.45
2018-07-23T19:31:37.296Z,5.20
2018-07-23T19:34:06.129Z,4.90
2018-07-23T19:36:34.674Z,4.95
2018-07-23T19:39:03.397Z,4.90
2018-07-23T19:41:31.947Z,4.87
2018-07-23T19:44:00.459Z,5.85
2018-07-23T19:46:28.896Z,5.70
2018-07-23T19:48:57.688Z,5.12
2018-07-23T19:51:26.222Z,5.08
2018-07-23T19:53:54.654Z,4.92
2018-07-23T19:56:23.171Z,4.65
2018-07-23T19:58:51.650Z,5.30
2018-07-23T20:01:20.775Z,5.65
2018-07-23T20:03:49.272Z,5.20
2018-07-23T20:06:22.032Z,5.47
2018-07-23T20:08:50.642Z,5.53
2018-07-23T20:11:19.651Z,5.67
2018-07-23T20:13:48.136Z,5.83
2018-07-23T20:16:16.674Z,5.17
2018-07-23T20:18:45.185Z,5.65
2018-07-23T20:21:13.909Z,5.08
2018-07-23T20:23:42.726Z,5.37
2018-07-23T20:26:11.257Z,7.30
2018-07-23T20:28:39.962Z,7.70
2018-07-23T20:31:08.494Z,5.97
2018-07-23T20:33:37.025Z,6.15
2018-07-23T20:36:06.243Z,5.53
2018-07-23T20:38:34.758Z,5.15
2018-07-23T20:41:03.255Z,5.05
2018-07-23T20:43:32.557Z,5.15
2018-07-23T20:46:01.365Z,6.15
2018-07-23T20:48:29.781Z,6.05
2018-07-23T20:50:58.300Z,5.55
2018-07-23T20:53:26.865Z,8.35
2018-07-23T20:55:55.375Z,7.15
2018-07-23T20:58:24.229Z,7.90
2018-07-23T21:00:52.815Z,5.97
2018-07-23T21:03:21.467Z,7.80
2018-07-23T21:05:49.948Z,8.93
2018-07-23T21:08:18.411Z,9.20
2018-07-23T21:10:46.846Z,6.28
2018-07-23T21:13:15.399Z,7.85
2018-07-23T21:15:43.926Z,6.78
2018-07-23T21:18:12.452Z,7.20
2018-07-23T21:20:41.079Z,6.17
2018-07-23T21:23:10.019Z,6.62
2018-07-23T21:25:38.540Z,6.97
2018-07-23T21:28:07.072Z,6.03
2018-07-23T21:30:35.608Z,5.17
2018-07-23T21:33:04.051Z,5.97
2018-07-23T21:35:32.557Z,6.37
2018-07-23T21:38:01.056Z,5.85
2018-07-23T21:40:29.520Z,6.65
2018-07-23T21:42:57.916Z,6.50
2018-07-23T21:45:27.316Z,6.92
2018-07-23T21:47:55.850Z,6.62
2018-07-23T21:50:24.368Z,5.62
2018-07-23T21:52:52.828Z,5.83
2018-07-23T21:55:20.990Z,5.95
2018-07-23T21:57:49.518Z,6.12
2018-07-23T22:00:18.047Z,5.30
2018-07-23T22:02:46.524Z,6.40
2018-07-23T22:05:14.910Z,6.40
2018-07-23T22:07:43.344Z,5.90
2018-07-23T22:10:11.821Z,5.78
2018-07-23T22:12:40.280Z,5.97
2018-07-23T22:15:10.523Z,8.33
2018-07-23T22:17:39.037Z,12.65
2018-07-23T22:20:08.280Z,9.08
2018-07-23T22:22:36.718Z,7.25
2018-07-23T22:25:05.569Z,6.47
2018-07-23T22:27:34.013Z,5.58
2018-07-23T22:30:02.431Z,5.85
2018-07-23T22:32:30.936Z,6.47
2018-07-23T22:34:59.531Z,6.15
2018-07-23T22:37:27.970Z,5.90
2018-07-23T22:39:56.397Z,5.47
2018-07-23T22:42:25.421Z,6.55
2018-07-23T22:44:53.833Z,6.77
2018-07-23T22:47:22.248Z,7.75
2018-07-23T22:49:50.695Z,7.35
2018-07-23T22:52:19.115Z,7.33
2018-07-23T22:54:47.485Z,7.05
2018-07-23T22:57:15.938Z,5.90
2018-07-23T22:59:44.342Z,6.30
2018-07-23T23:02:12.800Z,6.43
2018-07-23T23:04:41.213Z,6.80
2018-07-23T23:07:09.675Z,6.20
2018-07-23T23:09:38.078Z,6.10
2018-07-23T23:12:06.630Z,6.30
2018-07-23T23:14:35.032Z,6.50
2018-07-23T23:17:03.974Z,6.03
2018-07-23T23:19:32.479Z,8.20
2018-07-23T23:22:00.874Z,6.33
2018-07-23T23:24:29.334Z,6.57
2018-07-23T23:26:57.812Z,6.20
2018-07-23T23:29:26.250Z,7.13
2018-07-23T23:31:54.642Z,7.10
2018-07-23T23:34:23.078Z,6.13
2018-07-23T23:36:51.494Z,7.92
2018-07-23T23:39:19.930Z,6.87
2018-07-23T23:41:48.038Z,5.83
2018-07-23T23:44:16.472Z,5.93
2018-07-23T23:46:44.980Z,5.30
2018-07-23T23:49:13.450Z,6.53
2018-07-23T23:51:41.890Z,5.77
2018-07-23T23:54:10.376Z,5.87
2018-07-23T23:56:38.774Z,5.90
2018-07-23T23:59:07.194Z,5.70
